Time;durP1;ratioP1;P1;durP2;ratioP2;P2;SDS_P1;SDS_P2;PMS_P1;PMS_P2;Temp;Humidity;BMP_temperature;BMP_pressure;BME280_temperature;BME280_humidity;BME280_pressure;Samples;Min_cycle;Max_cycle;Signal;HPM_P1;HPM_P2
2023/05/03 00:01:50;;;;;;;7.10;6.40;;;8.10;80.90;;;;;;5052849;28;20916;-72
2023/05/03 00:04:19;;;;;;;7.50;6.80;;;8.00;80.40;;;;;;5052467;28;20462;-73
2023/05/03 00:06:45;;;;;;;7.78;6.13;;;8.00;81.30;;;;;;5055910;28;20740;-73
2023/05/03 00:09:13;;;;;;;9.30;6.20;;;8.00;81.00;;;;;;5063347;28;20435;-73
2023/05/03 00:11:40;;;;;;;8.60;5.80;;;8.00;80.80;;;;;;5072874;28;20796;-73
2023/05/03 00:14:06;;;;;;;7.78;6.20;;;8.00;81.00;;;;;;5061046;28;20436;-73
2023/05/03 00:16:34;;;;;;;7.65;6.55;;;7.90;81.80;;;;;;5060491;28;20429;-73
2023/05/03 00:19:00;;;;;;;6.45;5.95;;;7.90;82.20;;;;;;5056692;28;20469;-73
2023/05/03 00:21:28;;;;;;;7.10;6.10;;;7.80;81.70;;;;;;5061874;28;20428;-73
2023/05/03 00:23:55;;;;;;;8.20;6.32;;;7.80;81.80;;;;;;5055988;28;20439;-73
2023/05/03 00:26:22;;;;;;;10.95;6.80;;;7.80;83.10;;;;;;5057829;28;20432;-73
2023/05/03 00:28:49;;;;;;;7.95;5.70;;;7.80;82.80;;;;;;5056071;28;20502;-73
2023/05/03 00:31:16;;;;;;;7.50;6.10;;;7.80;83.10;;;;;;5055265;28;20437;-73
2023/05/03 00:33:42;;;;;;;7.35;5.97;;;7.70;82.70;;;;;;5051239;28;20804;-72
2023/05/03 00:36:10;;;;;;;7.82;5.30;;;7.70;83.00;;;;;;5059454;28;20427;-73
2023/05/03 00:38:39;;;;;;;6.82;5.80;;;7.60;81.90;;;;;;5059121;28;20457;-72
2023/05/03 00:41:06;;;;;;;7.25;6.55;;;7.70;82.70;;;;;;5050725;28;20444;-72
2023/05/03 00:43:34;;;;;;;6.50;5.72;;;7.70;82.60;;;;;;5046952;28;20899;-72
2023/05/03 00:46:02;;;;;;;7.90;5.77;;;7.60;83.00;;;;;;5055489;28;20448;-73
2023/05/03 00:48:29;;;;;;;7.30;5.90;;;7.50;83.40;;;;;;5052382;28;20450;-73
2023/05/03 00:50:58;;;;;;;6.97;5.80;;;7.50;83.10;;;;;;5052565;28;20472;-72
2023/05/03 00:53:26;;;;;;;6.93;6.00;;;7.40;83.30;;;;;;5060319;28;20497;-73
2023/05/03 00:55:55;;;;;;;5.95;5.35;;;7.40;84.10;;;;;;5062986;28;20914;-73
2023/05/03 00:58:22;;;;;;;7.55;5.60;;;7.40;83.90;;;;;;5068244;28;20428;-72
2023/05/03 01:00:49;;;;;;;6.18;5.57;;;7.30;84.00;;;;;;5055874;28;20718;-72
2023/05/03 01:03:16;;;;;;;7.05;5.85;;;7.30;84.40;;;;;;5055338;28;20441;-72
2023/05/03 01:05:50;;;;;;;8.20;6.20;;;7.30;84.30;;;;;;5051107;28;20437;-72
2023/05/03 01:08:27;;;;;;;9.70;6.70;;;7.30;84.90;;;;;;5056641;28;20504;-72
2023/05/03 01:11:01;;;;;;;6.20;5.60;;;7.30;85.00;;;;;;5060073;28;20446;-72
2023/05/03 01:13:35;;;;;;;7.07;5.90;;;7.30;85.30;;;;;;5037706;28;20451;-72
2023/05/03 01:16:14;;;;;;;6.80;5.70;;;7.30;86.10;;;;;;5056640;28;20529;-72
2023/05/03 01:18:45;;;;;;;6.25;5.35;;;7.30;85.90;;;;;;5050794;28;20455;-71
2023/05/03 01:21:16;;;;;;;6.25;5.43;;;7.20;85.20;;;;;;5043996;28;20509;-73
2023/05/03 01:23:50;;;;;;;8.32;5.85;;;7.10;86.40;;;;;;5056387;28;20924;-72
2023/05/03 01:26:23;;;;;;;7.60;5.50;;;7.10;86.40;;;;;;5051018;28;20827;-72
2023/05/03 01:28:49;;;;;;;6.85;5.93;;;7.00;87.10;;;;;;5046720;28;20453;-72
2023/05/03 01:31:22;;;;;;;7.25;5.90;;;7.00;87.70;;;;;;5051815;28;20786;-72
2023/05/03 01:34:01;;;;;;;6.70;6.10;;;7.00;88.10;;;;;;5051926;28;20456;-71
2023/05/03 01:36:31;;;;;;;6.90;5.63;;;6.90;87.80;;;;;;5043258;28;20796;-72
2023/05/03 01:39:01;;;;;;;6.50;5.45;;;6.90;87.80;;;;;;5047566;28;20444;-72
2023/05/03 01:41:29;;;;;;;6.75;5.97;;;6.90;88.00;;;;;;5050592;28;20437;-72
2023/05/03 01:43:57;;;;;;;6.65;6.05;;;6.80;88.00;;;;;;5055947;28;20543;-73
2023/05/03 01:46:24;;;;;;;6.45;5.30;;;6.80;88.60;;;;;;5052874;28;20461;-73
2023/05/03 01:48:50;;;;;;;6.40;5.80;;;6.80;88.60;;;;;;5047020;28;20440;-71
2023/05/03 01:51:17;;;;;;;6.85;5.20;;;6.80;89.40;;;;;;5046767;28;20908;-72
2023/05/03 01:53:44;;;;;;;8.25;5.45;;;6.80;89.10;;;;;;5063795;22;20577;-73
2023/05/03 01:56:11;;;;;;;7.45;6.07;;;6.70;89.30;;;;;;5041869;28;20438;-73
2023/05/03 01:58:39;;;;;;;6.90;6.00;;;6.70;89.10;;;;;;5044085;28;20440;-73
2023/05/03 02:01:06;;;;;;;6.13;5.53;;;6.80;89.00;;;;;;5045950;28;20432;-73
2023/05/03 02:03:33;;;;;;;7.85;5.80;;;6.80;88.80;;;;;;5046153;28;20429;-73
2023/05/03 02:06:00;;;;;;;6.10;5.50;;;6.80;88.80;;;;;;5041568;28;20429;-73
2023/05/03 02:08:27;;;;;;;6.45;5.85;;;6.70;88.70;;;;;;5046219;28;20740;-73
2023/05/03 02:10:53;;;;;;;6.20;5.57;;;6.70;89.00;;;;;;5047385;28;20437;-73
2023/05/03 02:13:20;;;;;;;5.93;5.33;;;6.70;89.50;;;;;;5045395;28;20428;-73
2023/05/03 02:15:48;;;;;;;7.38;6.28;;;6.70;89.30;;;;;;5046002;28;20952;-73
2023/05/03 02:18:17;;;;;;;5.95;5.45;;;6.60;88.90;;;;;;5045926;28;20696;-73
2023/05/03 02:20:45;;;;;;;6.10;5.50;;;6.60;88.90;;;;;;5038265;28;20438;-73
2023/05/03 02:23:12;;;;;;;6.88;5.63;;;6.50;89.60;;;;;;5043551;28;20440;-73
2023/05/03 02:25:39;;;;;;;6.75;5.60;;;6.50;89.20;;;;;;5047614;28;20436;-73
2023/05/03 02:28:06;;;;;;;6.35;5.40;;;6.50;89.60;;;;;;5047205;28;20429;-72
2023/05/03 02:30:33;;;;;;;6.20;5.43;;;6.50;90.10;;;;;;5044181;28;20433;-73
2023/05/03 02:33:01;;;;;;;6.50;5.80;;;6.50;89.80;;;;;;5044880;28;20482;-73
2023/05/03 02:35:27;;;;;;;6.65;5.88;;;6.50;89.90;;;;;;5046413;28;20425;-73
2023/05/03 02:37:54;;;;;;;6.60;5.80;;;6.40;90.10;;;;;;5046380;28;20441;-73
2023/05/03 02:40:21;;;;;;;6.53;5.82;;;6.40;90.30;;;;;;5045009;28;20446;-73
2023/05/03 02:42:48;;;;;;;6.80;6.10;;;6.30;90.40;;;;;;5040864;28;20468;-74
2023/05/03 02:45:15;;;;;;;8.63;5.90;;;6.30;90.20;;;;;;5041925;28;20429;-73
2023/05/03 02:47:41;;;;;;;6.53;5.63;;;6.30;90.50;;;;;;5047081;28;20919;-73
2023/05/03 02:50:10;;;;;;;6.32;5.72;;;6.40;90.60;;;;;;5043340;28;20435;-73
2023/05/03 02:52:36;;;;;;;7.10;6.40;;;6.30;90.40;;;;;;5043216;28;20433;-74
2023/05/03 02:55:04;;;;;;;7.10;5.85;;;6.30;90.30;;;;;;5037048;28;20427;-72
2023/05/03 02:57:31;;;;;;;7.30;6.07;;;6.20;90.00;;;;;;5049090;28;20425;-73
2023/05/03 02:59:58;;;;;;;7.70;6.20;;;6.20;90.60;;;;;;5048249;28;20923;-72
2023/05/03 03:02:24;;;;;;;6.55;5.95;;;6.10;91.00;;;;;;5044138;28;20425;-72
2023/05/03 03:04:52;;;;;;;6.80;5.80;;;6.10;90.90;;;;;;5047364;28;20551;-73
2023/05/03 03:07:20;;;;;;;6.60;6.00;;;6.00;90.90;;;;;;5047203;28;20973;-72
2023/05/03 03:09:46;;;;;;;7.28;6.32;;;5.90;91.20;;;;;;5045600;28;20464;-73
2023/05/03 03:12:13;;;;;;;6.82;6.13;;;6.00;91.60;;;;;;5041243;28;20917;-73
2023/05/03 03:14:40;;;;;;;6.75;6.15;;;5.90;91.50;;;;;;5046780;28;20938;-72
2023/05/03 03:17:08;;;;;;;7.40;6.20;;;5.90;91.90;;;;;;5045519;28;20450;-71
2023/05/03 03:19:35;;;;;;;6.50;5.90;;;6.00;92.50;;;;;;5045518;28;20436;-71
2023/05/03 03:22:02;;;;;;;7.93;6.97;;;6.00;91.90;;;;;;5045030;28;20444;-73
2023/05/03 03:24:30;;;;;;;6.65;5.97;;;5.90;91.80;;;;;;5043075;28;20792;-72
2023/05/03 03:26:57;;;;;;;7.10;6.00;;;5.80;92.10;;;;;;5048264;28;20465;-73
2023/05/03 03:29:23;;;;;;;7.75;6.30;;;5.70;92.30;;;;;;5049559;28;20941;-72
2023/05/03 03:31:50;;;;;;;8.55;6.72;;;5.70;92.70;;;;;;5049928;28;20440;-73
2023/05/03 03:34:17;;;;;;;7.22;6.30;;;5.70;93.00;;;;;;5050864;28;20413;-73
2023/05/03 03:36:44;;;;;;;7.93;6.68;;;5.60;93.20;;;;;;5050442;28;20432;-74
2023/05/03 03:39:11;;;;;;;8.20;6.90;;;5.60;93.50;;;;;;5048521;28;20520;-73
2023/05/03 03:41:39;;;;;;;7.38;6.43;;;5.60;93.70;;;;;;5051219;28;20426;-72
2023/05/03 03:44:06;;;;;;;7.40;6.70;;;5.60;93.90;;;;;;5051022;28;20425;-73
2023/05/03 03:46:33;;;;;;;6.65;6.05;;;5.60;94.20;;;;;;5049776;28;20434;-72
2023/05/03 03:48:59;;;;;;;7.50;6.70;;;5.50;94.50;;;;;;5044013;28;20485;-72
2023/05/03 03:51:26;;;;;;;6.90;6.20;;;5.60;94.70;;;;;;5048821;28;20439;-71
2023/05/03 03:53:53;;;;;;;7.72;6.15;;;5.60;94.60;;;;;;5048912;28;20511;-72
2023/05/03 03:56:20;;;;;;;7.22;6.47;;;5.60;94.60;;;;;;5047674;28;20712;-72
2023/05/03 03:58:48;;;;;;;7.47;6.70;;;5.70;94.60;;;;;;5048660;28;20459;-72
2023/05/03 04:01:15;;;;;;;8.10;6.72;;;5.70;94.30;;;;;;5048401;28;20946;-73
2023/05/03 04:03:44;;;;;;;7.10;6.50;;;5.70;94.20;;;;;;5049003;28;20444;-73
2023/05/03 04:06:11;;;;;;;8.10;6.50;;;5.80;94.00;;;;;;5041405;28;20433;-72
2023/05/03 04:08:38;;;;;;;7.10;6.50;;;5.70;93.80;;;;;;5050036;28;20923;-73
2023/05/03 04:11:10;;;;;;;8.90;6.45;;;5.80;93.90;;;;;;5048174;28;20429;-73
2023/05/03 04:13:37;;;;;;;7.25;6.60;;;5.80;93.90;;;;;;5047722;28;20815;-72
2023/05/03 04:16:06;;;;;;;8.65;7.07;;;5.80;93.90;;;;;;5041218;28;20928;-61
2023/05/03 04:18:32;;;;;;;7.93;6.65;;;5.80;94.00;;;;;;5048788;28;20463;-62
2023/05/03 04:20:59;;;;;;;8.60;7.18;;;5.80;94.30;;;;;;5048031;28;20788;-73
2023/05/03 04:23:26;;;;;;;8.10;7.00;;;5.80;94.80;;;;;;5050060;28;20440;-72
2023/05/03 04:25:53;;;;;;;7.50;6.70;;;5.90;95.00;;;;;;5049884;28;20422;-72
2023/05/03 04:28:19;;;;;;;8.82;7.93;;;5.90;95.20;;;;;;5048958;28;20433;-72
2023/05/03 04:30:48;;;;;;;8.73;7.50;;;6.00;95.30;;;;;;5049683;28;20464;-73
2023/05/03 04:33:16;;;;;;;8.70;7.43;;;6.00;95.40;;;;;;5048917;28;20429;-72
2023/05/03 04:35:43;;;;;;;8.15;7.25;;;6.00;95.40;;;;;;5043015;28;20513;-72
2023/05/03 04:38:09;;;;;;;8.30;7.50;;;6.10;95.50;;;;;;5042114;28;20931;-73
2023/05/03 04:40:36;;;;;;;8.60;7.70;;;6.00;95.60;;;;;;5041105;28;20437;-72
2023/05/03 04:43:04;;;;;;;8.95;8.05;;;6.10;95.60;;;;;;5045519;28;20452;-72
2023/05/03 04:45:30;;;;;;;8.95;7.90;;;6.10;95.40;;;;;;5044233;28;20706;-73
2023/05/03 04:47:57;;;;;;;9.57;7.93;;;6.10;95.50;;;;;;5046502;28;20456;-72
2023/05/03 04:50:25;;;;;;;12.00;8.93;;;6.10;95.20;;;;;;5050096;28;20492;-73
2023/05/03 04:52:52;;;;;;;9.77;8.50;;;6.00;95.10;;;;;;5049270;28;20413;-72
2023/05/03 04:55:19;;;;;;;10.77;9.10;;;6.00;95.20;;;;;;5047143;28;20425;-72
2023/05/03 04:57:46;;;;;;;12.10;10.20;;;6.00;95.30;;;;;;5039408;28;20445;-73
2023/05/03 05:00:13;;;;;;;12.95;10.60;;;6.00;95.20;;;;;;5037677;28;20916;-72
2023/05/03 05:02:40;;;;;;;12.80;10.38;;;5.90;95.50;;;;;;5049180;28;20414;-72
2023/05/03 05:05:09;;;;;;;13.43;10.23;;;6.00;96.00;;;;;;5045094;28;20460;-73
2023/05/03 05:07:37;;;;;;;13.20;10.77;;;6.00;96.00;;;;;;5044839;28;20901;-72
2023/05/03 05:10:04;;;;;;;15.70;10.75;;;5.90;96.00;;;;;;5047033;28;20452;-72
2023/05/03 05:12:31;;;;;;;13.35;10.30;;;5.90;96.10;;;;;;5046764;28;20456;-72
2023/05/03 05:14:58;;;;;;;11.15;9.95;;;5.90;96.40;;;;;;5047126;28;20430;-72
2023/05/03 05:17:25;;;;;;;11.40;8.80;;;6.00;96.50;;;;;;5043372;28;20480;-71
2023/05/03 05:19:52;;;;;;;11.70;8.90;;;6.00;95.90;;;;;;5046640;28;20976;-73
2023/05/03 05:22:19;;;;;;;12.65;9.43;;;6.10;95.40;;;;;;5045558;28;20511;-73
2023/05/03 05:24:47;;;;;;;13.13;9.85;;;6.20;95.00;;;;;;5039193;28;21104;-72
2023/05/03 05:27:14;;;;;;;10.73;9.50;;;6.20;94.50;;;;;;5036679;28;20440;-72
2023/05/03 05:29:41;;;;;;;11.75;8.70;;;6.30;94.60;;;;;;5045232;28;20484;-73
2023/05/03 05:32:08;;;;;;;11.65;8.40;;;6.30;94.20;;;;;;5044713;28;20452;-74
2023/05/03 05:34:35;;;;;;;9.38;7.28;;;6.40;93.70;;;;;;5047096;28;20907;-72
2023/05/03 05:37:03;;;;;;;8.07;7.30;;;6.40;93.10;;;;;;5039286;28;20469;-73
2023/05/03 05:39:29;;;;;;;11.38;9.60;;;6.40;92.90;;;;;;5038337;28;20442;-73
2023/05/03 05:41:57;;;;;;;12.10;9.20;;;6.40;93.30;;;;;;5032025;28;20935;-73
2023/05/03 05:44:24;;;;;;;9.77;8.73;;;6.50;93.50;;;;;;5035400;28;20405;-72
2023/05/03 05:46:51;;;;;;;9.10;8.20;;;6.50;93.30;;;;;;5047145;28;20438;-74
2023/05/03 05:49:18;;;;;;;9.88;7.88;;;6.50;92.70;;;;;;5047009;28;20441;-73
2023/05/03 05:51:44;;;;;;;8.70;7.70;;;6.50;92.10;;;;;;5058743;28;20763;-73
2023/05/03 05:54:11;;;;;;;10.25;8.10;;;6.60;92.00;;;;;;5047183;28;20460;-73
2023/05/03 05:56:38;;;;;;;10.93;7.50;;;6.60;92.00;;;;;;5047859;28;20508;-73
2023/05/03 05:59:06;;;;;;;8.15;7.35;;;6.70;91.90;;;;;;5042306;28;20440;-74
2023/05/03 06:01:33;;;;;;;8.25;7.45;;;6.70;91.50;;;;;;5046919;28;20431;-73
2023/05/03 06:04:00;;;;;;;8.93;8.05;;;6.80;91.40;;;;;;5046934;28;20433;-74
2023/05/03 06:06:27;;;;;;;8.68;7.80;;;6.80;91.70;;;;;;5043848;28;20925;-74
2023/05/03 06:08:54;;;;;;;9.40;8.20;;;6.80;91.60;;;;;;5046995;28;20444;-73
2023/05/03 06:11:21;;;;;;;9.67;8.07;;;6.90;91.50;;;;;;5044426;28;20481;-74
2023/05/03 06:13:48;;;;;;;9.60;8.60;;;6.90;91.50;;;;;;5046938;28;20803;-73
2023/05/03 06:16:16;;;;;;;8.30;7.50;;;7.00;91.50;;;;;;5046821;28;20942;-73
2023/05/03 06:18:43;;;;;;;9.40;8.13;;;7.00;91.10;;;;;;5047164;28;20819;-74
2023/05/03 06:21:10;;;;;;;9.18;7.70;;;7.10;91.30;;;;;;5046634;28;20452;-74
2023/05/03 06:23:38;;;;;;;9.82;8.93;;;7.20;91.10;;;;;;5048132;28;20425;-73
2023/05/03 06:26:05;;;;;;;10.00;7.30;;;7.30;90.40;;;;;;5046893;28;20479;-73
2023/05/03 06:28:31;;;;;;;9.65;7.60;;;7.30;89.00;;;;;;5048511;28;20424;-73
2023/05/03 06:30:58;;;;;;;9.55;7.60;;;7.40;87.70;;;;;;5046446;28;20445;-73
2023/05/03 06:33:26;;;;;;;9.20;7.70;;;7.50;87.90;;;;;;5047046;28;20487;-74
2023/05/03 06:35:53;;;;;;;8.20;7.40;;;7.60;88.40;;;;;;5037878;28;20432;-73
2023/05/03 06:38:20;;;;;;;7.50;6.80;;;7.70;86.70;;;;;;5046023;28;20429;-74
2023/05/03 06:40:47;;;;;;;7.65;6.70;;;7.70;85.20;;;;;;5048059;28;20443;-73
2023/05/03 06:43:14;;;;;;;7.57;6.88;;;7.90;85.30;;;;;;5046670;28;20440;-73
2023/05/03 06:45:43;;;;;;;8.35;6.95;;;8.00;84.50;;;;;;5047048;28;20432;-73
2023/05/03 06:48:09;;;;;;;8.00;6.57;;;8.10;83.60;;;;;;5048353;28;20424;-72
2023/05/03 06:50:38;;;;;;;8.00;6.97;;;8.20;82.50;;;;;;5048234;28;20421;-73
2023/05/03 06:53:05;;;;;;;8.67;7.60;;;8.20;81.30;;;;;;5047138;28;20428;-73
2023/05/03 06:55:32;;;;;;;7.50;6.60;;;8.30;81.30;;;;;;5046134;28;20429;-72
2023/05/03 06:57:59;;;;;;;7.50;6.70;;;8.50;81.40;;;;;;5044786;28;20437;-74
2023/05/03 07:00:26;;;;;;;7.95;6.55;;;8.60;80.10;;;;;;5046181;28;20433;-73
2023/05/03 07:02:53;;;;;;;7.88;6.55;;;8.80;78.10;;;;;;5049834;28;20429;-72
2023/05/03 07:05:20;;;;;;;7.25;6.03;;;9.00;75.60;;;;;;5049280;28;20475;-72
2023/05/03 07:07:48;;;;;;;7.13;6.00;;;9.10;74.80;;;;;;5050060;28;20868;-72
2023/05/03 07:10:14;;;;;;;7.78;6.20;;;9.20;74.80;;;;;;5050348;28;20908;-73
2023/05/03 07:12:41;;;;;;;6.72;6.05;;;9.30;74.20;;;;;;5051404;28;20409;-73
2023/05/03 07:15:09;;;;;;;9.90;6.43;;;9.50;74.10;;;;;;5051814;28;20417;-74
2023/05/03 07:17:36;;;;;;;5.72;5.05;;;9.60;72.70;;;;;;5050867;28;20482;-72
2023/05/03 07:20:03;;;;;;;5.90;5.30;;;9.80;70.20;;;;;;5046669;28;20444;-73
2023/05/03 07:22:29;;;;;;;6.80;5.30;;;10.00;69.10;;;;;;5045240;28;20424;-76
2023/05/03 07:24:58;;;;;;;5.10;4.60;;;10.20;66.90;;;;;;5051659;28;20424;-78
2023/05/03 07:27:25;;;;;;;5.50;5.00;;;10.30;66.50;;;;;;5053959;28;20433;-75
2023/05/03 07:29:52;;;;;;;6.30;5.10;;;10.50;66.00;;;;;;5050766;28;20428;-75
2023/05/03 07:32:20;;;;;;;6.90;5.10;;;10.60;66.20;;;;;;5048555;28;20618;-73
2023/05/03 07:34:47;;;;;;;5.68;5.18;;;10.80;64.40;;;;;;5049776;28;20437;-76
2023/05/03 07:37:14;;;;;;;5.30;4.80;;;11.00;64.20;;;;;;5050659;28;20464;-76
2023/05/03 07:39:41;;;;;;;5.88;5.00;;;11.10;63.50;;;;;;5048034;28;20437;-77
2023/05/03 07:42:09;;;;;;;5.10;4.40;;;11.30;62.40;;;;;;5050582;28;20428;-76
2023/05/03 07:44:36;;;;;;;5.07;4.43;;;11.50;60.80;;;;;;5043753;28;20430;-75
2023/05/03 07:47:03;;;;;;;5.32;4.78;;;11.60;60.80;;;;;;5047135;28;20785;-76
2023/05/03 07:49:34;;;;;;;5.20;4.70;;;11.80;59.30;;;;;;5053316;28;20691;-78
2023/05/03 07:52:01;;;;;;;5.15;4.68;;;11.90;58.30;;;;;;5055400;28;20421;-77
2023/05/03 07:54:27;;;;;;;5.78;5.03;;;12.00;56.60;;;;;;5058720;28;20429;-77
2023/05/03 07:56:54;;;;;;;6.40;5.43;;;12.10;56.40;;;;;;5057732;28;20471;-79
2023/05/03 07:59:22;;;;;;;5.73;4.60;;;12.20;56.20;;;;;;5064182;28;20420;-76
2023/05/03 08:01:49;;;;;;;4.95;4.53;;;12.40;53.90;;;;;;5069331;28;20441;-75
2023/05/03 08:04:15;;;;;;;4.90;4.40;;;12.60;53.20;;;;;;5072641;28;20710;-75
2023/05/03 08:06:42;;;;;;;4.70;4.30;;;12.70;52.20;;;;;;5074357;28;20425;-77
2023/05/03 08:09:10;;;;;;;5.03;4.53;;;12.70;52.30;;;;;;5060427;28;20433;-78
2023/05/03 08:11:37;;;;;;;6.50;5.13;;;13.00;52.50;;;;;;5057955;28;20761;-78
2023/05/03 08:14:03;;;;;;;5.10;4.60;;;13.10;51.70;;;;;;5056711;28;20796;-79
2023/05/03 08:16:32;;;;;;;6.55;4.68;;;13.20;51.80;;;;;;5053044;28;20417;-77
2023/05/03 08:18:58;;;;;;;5.07;4.45;;;13.20;50.50;;;;;;5051185;28;20452;-78
2023/05/03 08:21:27;;;;;;;4.90;4.40;;;13.40;49.30;;;;;;5054684;28;20437;-77
2023/05/03 08:23:54;;;;;;;6.05;5.00;;;13.50;49.00;;;;;;5055118;28;20435;-79
2023/05/03 08:26:23;;;;;;;6.15;4.70;;;13.70;48.90;;;;;;5057210;28;20436;-77
2023/05/03 08:28:49;;;;;;;6.97;4.47;;;13.90;47.60;;;;;;5057289;28;20459;-78
2023/05/03 08:31:16;;;;;;;5.60;4.60;;;14.00;47.10;;;;;;5055070;28;20483;-78
2023/05/03 08:33:44;;;;;;;5.57;4.10;;;14.00;46.40;;;;;;5057834;28;20424;-77
2023/05/03 08:36:11;;;;;;;6.60;4.70;;;14.00;47.00;;;;;;5057930;28;20443;-76
2023/05/03 08:38:40;;;;;;;4.97;4.57;;;14.00;46.40;;;;;;5052705;28;20433;-76
2023/05/03 08:41:17;;;;;;;4.90;4.45;;;14.00;46.20;;;;;;5054892;28;20452;-78
2023/05/03 08:43:45;;;;;;;4.50;4.10;;;14.00;45.90;;;;;;5054528;28;20930;-78
2023/05/03 08:46:13;;;;;;;4.20;3.80;;;14.10;48.00;;;;;;5053258;28;20511;-78
2023/05/03 08:48:40;;;;;;;4.90;4.40;;;14.30;46.30;;;;;;5054320;28;20444;-76
2023/05/03 08:51:09;;;;;;;4.95;4.35;;;14.60;45.80;;;;;;5054134;28;20452;-79
2023/05/03 08:53:36;;;;;;;4.40;4.00;;;14.80;44.30;;;;;;5055171;28;20542;-77
2023/05/03 08:56:07;;;;;;;5.07;4.30;;;15.00;43.40;;;;;;5054666;28;20443;-77
2023/05/03 08:58:35;;;;;;;4.95;4.45;;;15.10;42.90;;;;;;5058931;28;20421;-78
2023/05/03 09:01:05;;;;;;;5.20;4.45;;;15.20;42.20;;;;;;5057489;28;20993;-76
2023/05/03 09:03:31;;;;;;;5.13;4.53;;;15.20;41.60;;;;;;5057707;28;20463;-77
2023/05/03 09:06:00;;;;;;;4.80;4.20;;;15.30;42.40;;;;;;5058067;28;20421;-78
2023/05/03 09:08:29;;;;;;;4.97;4.10;;;15.40;43.00;;;;;;5053762;28;20596;-78
2023/05/03 09:10:56;;;;;;;4.43;4.00;;;15.50;42.70;;;;;;5045743;28;20918;-76
2023/05/03 09:13:30;;;;;;;4.20;3.80;;;15.70;42.90;;;;;;5053335;28;20421;-77
2023/05/03 09:15:57;;;;;;;4.30;3.90;;;15.80;42.80;;;;;;5056925;28;20428;-78
2023/05/03 09:18:25;;;;;;;5.00;4.15;;;16.10;42.20;;;;;;5056953;28;20417;-76
2023/05/03 09:20:52;;;;;;;4.22;3.72;;;16.10;41.20;;;;;;5055570;28;20432;-78
2023/05/03 09:23:29;;;;;;;4.80;4.38;;;16.30;41.40;;;;;;5055915;28;20504;-76
2023/05/03 09:25:58;;;;;;;5.68;3.90;;;16.40;40.40;;;;;;5055954;28;20578;-78
2023/05/03 09:28:25;;;;;;;4.50;3.70;;;16.50;41.20;;;;;;5057470;28;20440;-78
2023/05/03 09:31:04;;;;;;;4.13;3.60;;;16.70;40.60;;;;;;5046023;28;20438;-78
2023/05/03 09:33:31;;;;;;;5.22;3.50;;;16.90;40.20;;;;;;5053432;28;20420;-78
2023/05/03 09:36:00;;;;;;;4.50;3.75;;;17.00;39.30;;;;;;5062481;28;20485;-78
2023/05/03 09:38:27;;;;;;;4.18;3.78;;;17.20;39.50;;;;;;5056329;28;20927;-77
2023/05/03 09:40:54;;;;;;;3.90;3.50;;;17.40;38.30;;;;;;5059655;28;20828;-77
2023/05/03 09:43:22;;;;;;;4.10;3.40;;;17.50;38.70;;;;;;5058730;28;20440;-78
2023/05/03 09:45:49;;;;;;;3.45;2.95;;;17.70;37.60;;;;;;5047580;28;20834;-77
2023/05/03 09:48:17;;;;;;;4.05;3.60;;;17.80;36.60;;;;;;5053862;28;20429;-77
2023/05/03 09:50:44;;;;;;;3.50;3.20;;;17.80;37.30;;;;;;5052686;28;20512;-77
2023/05/03 09:53:11;;;;;;;4.13;3.50;;;17.90;36.80;;;;;;5064486;28;20421;-76
2023/05/03 09:55:40;;;;;;;3.70;3.40;;;18.00;37.50;;;;;;5054585;28;20429;-77
2023/05/03 09:58:07;;;;;;;6.38;4.13;;;18.10;36.50;;;;;;5053858;28;20460;-76
2023/05/03 10:00:42;;;;;;;4.30;3.70;;;18.20;36.10;;;;;;5054888;28;20444;-77
2023/05/03 10:03:11;;;;;;;4.28;3.85;;;18.20;35.20;;;;;;5057664;28;20434;-73
2023/05/03 10:05:45;;;;;;;4.78;4.28;;;18.20;34.40;;;;;;5056332;28;20417;-75
2023/05/03 10:08:19;;;;;;;5.63;3.80;;;17.90;35.30;;;;;;5058459;28;20425;-76
2023/05/03 10:10:49;;;;;;;3.95;3.55;;;17.90;36.00;;;;;;5054963;28;20413;-78
2023/05/03 10:13:16;;;;;;;4.50;4.00;;;18.10;36.00;;;;;;5081003;22;20429;-70
2023/05/03 10:15:47;;;;;;;3.90;3.17;;;18.20;35.40;;;;;;5076978;28;20430;-69
2023/05/03 10:18:17;;;;;;;4.15;3.47;;;18.30;35.00;;;;;;5084748;28;20410;-70
2023/05/03 10:20:50;;;;;;;3.42;3.13;;;18.50;35.60;;;;;;5077845;28;20434;-69
2023/05/03 10:23:18;;;;;;;5.40;3.40;;;18.70;33.90;;;;;;5073064;28;20501;-70
2023/05/03 10:26:15;;;;;;;4.20;3.50;;;18.80;34.00;;;;;;5071652;28;20488;-69
2023/05/03 10:28:42;;;;;;;3.22;2.92;;;18.70;33.20;;;;;;5068603;28;20433;-69
2023/05/03 10:31:42;;;;;;;3.83;2.90;;;18.80;34.30;;;;;;5080263;28;20973;-69
2023/05/03 10:34:22;;;;;;;4.28;3.10;;;18.90;34.70;;;;;;5083669;28;20410;-71
2023/05/03 10:36:51;;;;;;;4.53;3.25;;;19.10;34.70;;;;;;5083682;28;20421;-70
2023/05/03 10:39:18;;;;;;;3.20;2.90;;;19.20;33.40;;;;;;5082569;28;20417;-71
2023/05/03 10:41:58;;;;;;;4.68;3.40;;;19.40;33.00;;;;;;5070707;28;21348;-70
2023/05/03 10:44:26;;;;;;;4.63;4.20;;;19.50;31.70;;;;;;5083551;28;20410;-71
2023/05/03 10:46:54;;;;;;;3.55;2.80;;;19.60;32.50;;;;;;5083913;28;20455;-70
2023/05/03 10:49:25;;;;;;;3.70;3.40;;;19.70;32.90;;;;;;5082321;28;20521;-70
2023/05/03 10:51:51;;;;;;;3.30;3.00;;;19.80;31.70;;;;;;5084017;28;20421;-70
2023/05/03 10:54:18;;;;;;;4.03;3.17;;;19.80;31.90;;;;;;5083845;28;20788;-70
2023/05/03 10:56:54;;;;;;;3.53;3.00;;;19.80;32.30;;;;;;5074859;28;20463;-70
2023/05/03 10:59:23;;;;;;;3.97;2.80;;;19.90;32.70;;;;;;5072111;28;20456;-70
2023/05/03 11:01:51;;;;;;;4.90;2.90;;;20.10;32.40;;;;;;5081642;28;20849;-70
2023/05/03 11:04:35;;;;;;;4.53;3.00;;;20.20;32.30;;;;;;5078182;28;20706;-70
2023/05/03 11:07:02;;;;;;;3.33;2.50;;;20.40;31.90;;;;;;5083190;28;20923;-71
2023/05/03 11:09:31;;;;;;;3.47;2.70;;;20.50;31.10;;;;;;5083101;28;20432;-70
2023/05/03 11:11:58;;;;;;;4.97;2.80;;;20.50;30.00;;;;;;5082183;28;20417;-70
2023/05/03 11:14:25;;;;;;;3.28;2.63;;;20.60;30.30;;;;;;5070420;28;20427;-70
2023/05/03 11:16:55;;;;;;;2.88;2.50;;;20.70;29.50;;;;;;5078802;28;20429;-70
2023/05/03 11:19:24;;;;;;;4.33;2.73;;;20.70;29.50;;;;;;5082893;28;20483;-70
2023/05/03 11:21:51;;;;;;;3.20;2.50;;;20.80;30.80;;;;;;5074217;28;20496;-71
2023/05/03 11:24:18;;;;;;;3.80;2.55;;;21.00;30.90;;;;;;5076723;28;20413;-71
2023/05/03 11:26:45;;;;;;;3.00;2.50;;;21.20;30.40;;;;;;5075989;28;20498;-70
2023/05/03 11:29:12;;;;;;;4.15;2.95;;;21.40;30.60;;;;;;5072133;28;20804;-71
2023/05/03 11:31:41;;;;;;;3.35;2.80;;;21.50;30.00;;;;;;5073211;28;20519;-70
2023/05/03 11:34:08;;;;;;;3.20;2.90;;;21.70;29.80;;;;;;5077040;28;20434;-71
2023/05/03 11:36:37;;;;;;;3.83;2.80;;;21.60;28.90;;;;;;5081611;28;20422;-70
2023/05/03 11:39:05;;;;;;;3.85;2.90;;;21.70;29.00;;;;;;5079546;28;20596;-69
2023/05/03 11:41:32;;;;;;;2.70;2.50;;;22.00;29.60;;;;;;5070591;28;20932;-69
2023/05/03 11:43:59;;;;;;;3.42;2.67;;;22.20;29.90;;;;;;5079856;28;20945;-69
2023/05/03 11:46:29;;;;;;;3.63;2.97;;;22.30;28.80;;;;;;5078113;28;20448;-69
2023/05/03 11:48:56;;;;;;;4.38;2.80;;;22.50;29.20;;;;;;5079467;28;20898;-68
2023/05/03 11:51:23;;;;;;;3.70;2.80;;;22.80;30.00;;;;;;5086601;28;20718;-67
2023/05/03 11:53:51;;;;;;;3.67;2.80;;;22.90;28.20;;;;;;5085529;28;20932;-68
2023/05/03 11:56:19;;;;;;;3.50;2.50;;;23.10;28.30;;;;;;5084875;28;20425;-71
2023/05/03 11:58:51;;;;;;;3.47;2.40;;;23.20;29.00;;;;;;5083541;28;20430;-70
2023/05/03 12:01:19;;;;;;;3.40;2.38;;;23.20;29.20;;;;;;5078285;28;20417;-71
2023/05/03 12:03:48;;;;;;;3.25;2.88;;;23.00;29.60;;;;;;5086934;28;20421;-70
2023/05/03 12:06:15;;;;;;;2.20;2.00;;;22.90;28.70;;;;;;5083688;28;20453;-70
2023/05/03 12:08:42;;;;;;;3.70;2.25;;;22.80;29.80;;;;;;5080317;28;21069;-71
2023/05/03 12:11:10;;;;;;;4.18;2.50;;;22.90;30.20;;;;;;5086429;28;20433;-70
2023/05/03 12:13:38;;;;;;;3.60;2.40;;;23.00;29.80;;;;;;5084808;28;20860;-70
2023/05/03 12:16:06;;;;;;;3.53;2.00;;;23.10;29.10;;;;;;5079215;28;20935;-70
2023/05/03 12:18:46;;;;;;;3.58;2.30;;;23.10;29.30;;;;;;5081887;28;20540;-70
2023/05/03 12:21:14;;;;;;;3.92;2.42;;;23.30;29.30;;;;;;5078814;28;20934;-70
2023/05/03 12:23:41;;;;;;;4.25;2.38;;;23.50;28.70;;;;;;5077263;28;20526;-70
2023/05/03 12:26:09;;;;;;;2.75;2.15;;;23.60;27.20;;;;;;5084145;28;20954;-70
2023/05/03 12:28:36;;;;;;;3.10;2.40;;;23.60;26.50;;;;;;5079477;28;20441;-68
2023/05/03 12:31:03;;;;;;;2.83;2.30;;;23.40;26.70;;;;;;5074152;28;20526;-68
2023/05/03 12:33:29;;;;;;;3.25;2.28;;;23.60;27.60;;;;;;5074117;28;20426;-68
2023/05/03 12:35:57;;;;;;;3.40;1.90;;;24.40;27.90;;;;;;5084081;28;20521;-70
2023/05/03 12:38:24;;;;;;;3.60;1.90;;;25.30;27.20;;;;;;5078813;28;20722;-71
2023/05/03 12:40:51;;;;;;;4.32;2.33;;;25.50;26.60;;;;;;5082905;28;20426;-70
2023/05/03 12:43:20;;;;;;;2.92;2.00;;;25.20;26.30;;;;;;5083255;28;20442;-69
2023/05/03 12:45:46;;;;;;;2.50;1.90;;;25.00;26.70;;;;;;5084710;28;20429;-70
2023/05/03 12:48:13;;;;;;;3.70;2.00;;;24.90;27.30;;;;;;5072932;28;20533;-70
2023/05/03 12:50:40;;;;;;;2.08;1.83;;;25.00;27.00;;;;;;5080395;28;20437;-70
2023/05/03 12:53:07;;;;;;;3.85;1.73;;;25.20;26.00;;;;;;5077821;28;20425;-68
2023/05/03 12:55:34;;;;;;;2.53;1.60;;;25.30;26.30;;;;;;5083269;28;20462;-68